« Back
NWS Peachtree City, Ga » Text Product » CSG Terminal Aerodrome Forecast


Printer-friendly Version
Current Version              Previous Versions:   1  2  3  4  5  6  7  8  9  

Terminal Aerodrome Forecast

835
FTUS42 KFFC 272326
TAFCSG
TAF
KCSG 272326Z 2800/2824 35008KT P6SM FEW240
     FM281400 01006KT P6SM SKC
     FM281900 00000KT P6SM SKC=



USA.gov is the U.S. government's official web portal to all federal, state and local government web resources and services.